Flight Track Log - Related Links

Times and Time Zones

All times are in EDT time to prevent confusion due to time zone crossing. See the SKW2969 flight status page for this flight to view local times or setup timezone preferences in your user account.

Time Position Orientation Groundspeed Altitude Reporting Facility
EDT Latitude Longitude Course Direction KTS MPH feet Rate Location/Type
Fri 08:03:12 PM 33.4333 -111.9833 90° East 168 193 1,800  Level Phoenix TRACON
Fri 08:03:55 PM 33.4333 -111.9500 90° East 187 215 3,100 1,949 Climbing Phoenix TRACON
Fri 08:05:09 PM 33.4367 -111.8575 88° East 235 270 5,600 2,089 Climbing Albuquerque Center
Fri 08:06:10 PM 33.3922 -111.7892 128° Southeast 281 323 7,800 2,293 Climbing Albuquerque Center
Fri 08:07:12 PM 33.3289 -111.8400 214° Southwest 291 335 10,300 2,032 Climbing Albuquerque Center
Fri 08:08:14 PM 33.3358 -111.9425 275° West 311 358 12,000 1,756 Climbing Albuquerque Center
Fri 08:09:15 PM 33.3514 -112.0494 280° West 324 373 13,900 1,707 Climbing Albuquerque Center
Fri 08:10:17 PM 33.3667 -112.1583 280° West 331 381 15,500 1,694 Climbing Albuquerque Center
Fri 08:11:19 PM 33.3836 -112.2933 279° West 341 392 17,400 1,645 Climbing Albuquerque Center
Fri 08:12:21 PM 33.4000 -112.4083 280° West 349 402 18,900 1,415 Climbing Albuquerque Center
Fri 08:13:22 PM 33.4144 -112.5253 278° West 354 407 20,300 1,171 Climbing Albuquerque Center
Fri 08:14:24 PM 33.4303 -112.6506 279° West 361 415 21,300 968 Climbing Albuquerque Center
Fri 08:15:26 PM 33.4461 -112.7744 279° West 372 428 22,300 1,073 Climbing Albuquerque Center
Fri 08:16:27 PM 33.4669 -112.8961 282° West 373 429 23,500 1,171 Climbing Albuquerque Center
Fri 08:17:29 PM 33.4900 -113.0156 283° West 372 428 24,700 1,113 Climbing Albuquerque Center
Fri 08:18:31 PM 33.5133 -113.1344 283° West 370 426 25,800 634 Climbing Albuquerque Center
Fri 08:19:32 PM 33.5358 -113.2550 283° West 372 428 26,000 98 Climbing Albuquerque Center
Fri 08:20:34 PM 33.5644 -113.4033 283° West 379 436 26,000  Level Albuquerque Center
Fri 08:21:36 PM 33.5875 -113.5261 283° West 380 437 26,000  Level Albuquerque Center
Fri 08:22:38 PM 33.6106 -113.6508 283° West 383 441 26,000  Level Albuquerque Center
Fri 08:23:39 PM 33.6336 -113.7744 283° West 384 442 26,000  Level Albuquerque Center
Fri 08:24:41 PM 33.6558 -113.8994 282° West 384 442 26,000  Level Albuquerque Center
Fri 08:25:43 PM 33.6758 -114.0233 281° West 382 440 26,000  Level Albuquerque Center
Fri 08:26:44 PM 33.7019 -114.1736 282° West 382 440 26,000  Level Albuquerque Center
Fri 08:27:46 PM 33.7297 -114.3022 285° West 388 447 26,000  Level Albuquerque Center
Fri 08:28:48 PM 33.7533 -114.4275 283° West 388 447 26,000  Level Albuquerque Center
Fri 08:29:50 PM 33.7733 -114.5556 281° West 389 448 26,000  Level Albuquerque Center
Fri 08:31:05 PM 33.7842 -114.7142 275° West 389 448 26,000  Level Los Center
Fri 08:32:07 PM 33.7917 -114.8447 274° West 392 451 26,000  Level Los Center
Fri 08:33:09 PM 33.8006 -115.0006 274° West 391 450 26,000  Level Los Center
Fri 08:34:11 PM 33.8081 -115.1308 274° West 392 451 26,000  Level Los Center
Fri 08:35:13 PM 33.8161 -115.2603 274° West 391 450 26,000  Level Los Center
Fri 08:36:15 PM 33.8489 -115.3831 288° West 390 449 26,000  Level Los Center
Fri 08:37:17 PM 33.8856 -115.5067 290° West 394 453 26,000  Level Los Center
Fri 08:38:19 PM 33.9219 -115.6267 290° West 386 444 26,000  Level Los Center
Fri 08:39:22 PM 33.9672 -115.7731 290° West 391 450 26,000  Level Los Center
Fri 08:40:24 PM 34.0036 -115.8950 290° West 390 449 26,000  Level Los Center
Fri 08:41:26 PM 34.0400 -116.0147 290° West 386 444 26,000  Level Los Center
Fri 08:42:28 PM 34.0764 -116.1372 290° West 389 448 26,000  Level Los Center
Fri 08:43:30 PM 34.1131 -116.2592 290° West 388 447 26,000  Level Los Center
Fri 08:44:32 PM 34.1522 -116.3961 289° West 393 452 26,000  Level Los Center
Fri 08:45:34 PM 34.1897 -116.5181 290° West 390 449 26,000  Level Los Center
Fri 08:46:36 PM 34.2258 -116.6431 289° West 391 450 26,000  Level Los Center
Fri 08:47:38 PM 34.2619 -116.7667 289° West 391 450 26,000  Level Los Center
Fri 08:48:40 PM 34.3044 -116.9167 289° West 393 452 26,000  Level Los Center
Fri 08:49:42 PM 34.3422 -117.0394 290° West 391 450 26,000  Level Los Center
Fri 08:50:44 PM 34.3789 -117.1642 290° West 392 451 26,000 -532 Level Los Center
Fri 08:51:46 PM 34.4136 -117.2894 289° West 392 451 24,900 -960 Descending Los Center
Fri 08:52:49 PM 34.4492 -117.4139 289° West 390 449 24,000 -432 Descending Los Center
Fri 08:53:51 PM 34.4839 -117.5342 289° West 380 437 24,000 -435 Level Los Center
Fri 08:54:53 PM 34.5236 -117.6803 288° West 382 440 23,100 -1,016 Descending Los Center
Fri 08:55:55 PM 34.5578 -117.8000 289° West 375 432 21,900 -1,161 Descending Los Center
Fri 08:56:57 PM 34.5917 -117.9197 289° West 373 429 20,700 -919 Descending Los Center
Fri 08:57:59 PM 34.6253 -118.0397 289° West 375 432 20,000 -726 Descending Los Center
Fri 08:59:01 PM 34.6881 -118.1367 308° West 367 422 19,200 -1,161 Descending Los Center
Fri 09:00:03 PM 34.7556 -118.2250 313° West 358 412 17,600 -1,500 Descending Los Center
Fri 09:01:05 PM 34.8219 -118.3114 313° West 353 406 16,100 -1,645 Descending Los Center
Fri 09:02:07 PM 34.9008 -118.4139 313° West 346 398 14,200 -1,016 Descending Los Center
Fri 09:03:09 PM 34.9608 -118.4889 314° West 323 372 14,000 -97 Descending Los Center
Fri 09:04:11 PM 35.0178 -118.5667 312° West 309 356 14,000  Level Los Center
Fri 09:05:13 PM 35.0800 -118.6397 316° Northwest 309 356 14,000 -968 Level Los Center
Fri 09:06:15 PM 35.1433 -118.7081 319° Northwest 305 351 12,000 -2,371 Descending Los Center
Fri 09:07:17 PM 35.2172 -118.7908 318° Northwest 301 346 9,100 -1,776 Descending Los Center
Fri 09:08:20 PM 35.2697 -118.8511 317° Northwest 276 318 8,300 -1,536 Descending Los Center
Fri 09:09:22 PM 35.3092 -118.9022 313° West 240 276 5,900 -2,323 Descending Los Center
Fri 09:11:00 PM 35.4166 -119.0332 321° Northwest  Level FlightAware
Fri 09:18:00 PM 35.4333 -119.0500 321° Northwest  Level FlightAware

Login

Don't have an account? Register now (free) for customized features, flight alerts, and more!